createdAt,value
2017-02-22T00:00:50.598Z,10.56
2017-02-22T00:01:50.585Z,10.55
2017-02-22T00:02:50.567Z,10.53
2017-02-22T00:03:50.156Z,10.59
2017-02-22T00:04:50.530Z,10.56
2017-02-22T00:05:50.523Z,10.6
2017-02-22T00:06:50.505Z,10.6
2017-02-22T00:07:50.101Z,10.55
2017-02-22T00:08:50.079Z,10.55
2017-02-22T00:09:50.458Z,10.63
2017-02-22T00:10:50.056Z,10.71
2017-02-22T00:11:50.425Z,10.58
2017-02-22T00:12:50.015Z,10.56
2017-02-22T00:13:50.397Z,10.58
2017-02-22T00:14:49.978Z,10.6
2017-02-22T00:15:49.963Z,10.56
2017-02-22T00:16:49.947Z,10.55
2017-02-22T00:17:49.974Z,10.6
2017-02-22T00:18:50.311Z,10.6
2017-02-22T00:19:50.297Z,10.59
2017-02-22T00:20:50.294Z,10.6
2017-02-22T00:21:50.280Z,10.63
2017-02-22T00:22:50.254Z,10.55
2017-02-22T00:23:49.854Z,10.58
2017-02-22T00:24:50.217Z,10.66
2017-02-22T00:25:50.202Z,10.66
2017-02-22T00:26:50.182Z,10.53
2017-02-22T00:27:50.164Z,10.55
2017-02-22T00:28:50.151Z,10.6
2017-02-22T00:29:50.144Z,10.6
2017-02-22T00:30:50.124Z,10.58
2017-02-22T00:31:50.105Z,10.52
2017-02-22T00:32:50.094Z,10.65
2017-02-22T00:33:50.077Z,10.63
2017-02-22T00:34:50.055Z,10.66
2017-02-22T00:35:50.041Z,10.68
2017-02-22T00:36:50.030Z,10.71
2017-02-22T00:37:49.635Z,10.73
2017-02-22T00:38:50.190Z,10.73
2017-02-22T00:39:49.587Z,10.65
2017-02-22T00:40:49.578Z,10.65
2017-02-22T00:41:49.959Z,10.74
2017-02-22T00:42:49.942Z,10.73
2017-02-22T00:43:49.538Z,10.71
2017-02-22T00:44:49.912Z,10.73
2017-02-22T00:45:49.884Z,10.66
2017-02-22T00:46:49.874Z,10.7
2017-02-22T00:47:49.845Z,10.73
2017-02-22T00:48:49.830Z,10.73
2017-02-22T00:49:49.814Z,10.74
2017-02-22T00:50:49.798Z,10.7
2017-02-22T00:51:49.790Z,10.7
2017-02-22T00:52:49.769Z,10.71
2017-02-22T00:53:49.770Z,10.7
2017-02-22T00:54:49.731Z,10.73
2017-02-22T00:55:49.748Z,10.73
2017-02-22T00:56:49.710Z,10.74
2017-02-22T00:57:49.705Z,10.66
2017-02-22T00:58:49.666Z,10.7
2017-02-22T00:59:49.262Z,10.76
2017-02-22T01:00:49.651Z,10.77
2017-02-22T01:01:49.643Z,10.7
2017-02-22T01:02:49.221Z,10.77
2017-02-22T01:03:49.214Z,10.7
2017-02-22T01:04:49.578Z,10.66
2017-02-22T01:05:49.183Z,10.74
2017-02-22T01:06:49.543Z,10.7
2017-02-22T01:07:49.135Z,10.68
2017-02-22T01:08:49.118Z,10.68
2017-02-22T01:09:49.509Z,10.7
2017-02-22T01:10:49.487Z,10.74
2017-02-22T01:11:49.468Z,10.74
2017-02-22T01:12:49.463Z,10.78
2017-02-22T01:13:49.040Z,10.68
2017-02-22T01:14:49.039Z,10.71
2017-02-22T01:15:49.003Z,10.71
2017-02-22T01:16:48.989Z,10.78
2017-02-22T01:17:48.983Z,10.74
2017-02-22T01:18:48.965Z,10.73
2017-02-22T01:19:48.954Z,10.83
2017-02-22T01:20:49.324Z,10.78
2017-02-22T01:21:49.318Z,10.76
2017-02-22T01:22:49.296Z,10.83
2017-02-22T01:23:49.285Z,10.88
2017-02-22T01:24:49.279Z,10.86
2017-02-22T01:25:48.852Z,10.88
2017-02-22T01:26:49.245Z,10.89
2017-02-22T01:27:49.212Z,10.91
2017-02-22T01:28:49.198Z,10.88
2017-02-22T01:29:49.187Z,10.89
2017-02-22T01:30:49.172Z,10.96
2017-02-22T01:31:49.148Z,10.86
2017-02-22T01:32:49.159Z,10.89
2017-02-22T01:33:48.736Z,10.96
2017-02-22T01:34:49.110Z,10.91
2017-02-22T01:35:48.690Z,10.84
2017-02-22T01:36:49.072Z,11.02
2017-02-22T01:37:49.056Z,11.03
2017-02-22T01:38:48.650Z,10.99
2017-02-22T01:39:49.045Z,10.98
2017-02-22T01:40:48.613Z,10.96
2017-02-22T01:41:48.600Z,10.99
2017-02-22T01:42:48.999Z,10.92
2017-02-22T01:43:48.970Z,10.94
2017-02-22T01:44:48.953Z,10.96
2017-02-22T01:45:48.950Z,10.98
2017-02-22T01:46:48.522Z,11.01
2017-02-22T01:47:48.912Z,11.01
2017-02-22T01:48:48.503Z,10.96
2017-02-22T01:49:48.878Z,10.95
2017-02-22T01:50:48.860Z,10.98
2017-02-22T01:51:48.843Z,11.03
2017-02-22T01:52:48.826Z,11.01
2017-02-22T01:53:48.851Z,11.1
2017-02-22T01:54:48.792Z,11.1
2017-02-22T01:55:48.799Z,11.11
2017-02-22T01:56:48.757Z,11.17
2017-02-22T01:57:48.749Z,11.09
2017-02-22T01:58:48.749Z,11.09
2017-02-22T01:59:48.714Z,11.14
2017-02-22T02:00:48.705Z,11.11
2017-02-22T02:01:48.294Z,11.1
2017-02-22T02:02:48.667Z,11.13
2017-02-22T02:03:48.662Z,11.11
2017-02-22T02:04:48.269Z,11.13
2017-02-22T02:05:48.630Z,11.17
2017-02-22T02:06:48.606Z,11.11
2017-02-22T02:07:48.593Z,11.16
2017-02-22T02:08:48.579Z,11.16
2017-02-22T02:09:48.175Z,11.16
2017-02-22T02:10:48.554Z,11.13
2017-02-22T02:11:48.135Z,11.19
2017-02-22T02:12:48.112Z,11.19
2017-02-22T02:13:48.495Z,11.24
2017-02-22T02:14:48.480Z,11.21
2017-02-22T02:15:48.465Z,11.25
2017-02-22T02:16:48.051Z,11.25
2017-02-22T02:17:48.035Z,11.34
2017-02-22T02:18:48.016Z,11.29
2017-02-22T02:19:48.419Z,11.28
2017-02-22T02:20:48.011Z,11.28
2017-02-22T02:21:48.383Z,11.25
2017-02-22T02:22:47.981Z,11.32
2017-02-22T02:23:48.345Z,11.28
2017-02-22T02:24:48.340Z,11.25
2017-02-22T02:25:48.320Z,11.34
2017-02-22T02:26:48.298Z,11.31
2017-02-22T02:27:48.276Z,11.31
2017-02-22T02:28:48.273Z,11.34
2017-02-22T02:29:48.245Z,11.27
2017-02-22T02:30:48.234Z,11.29
2017-02-22T02:31:48.214Z,11.35
2017-02-22T02:32:48.199Z,11.32
2017-02-22T02:33:48.184Z,11.31
2017-02-22T02:34:48.169Z,11.35
2017-02-22T02:35:48.173Z,11.29
2017-02-22T02:36:48.151Z,11.28
2017-02-22T02:37:48.135Z,11.34
2017-02-22T02:38:48.321Z,11.41
2017-02-22T02:39:48.097Z,11.36
2017-02-22T02:40:48.083Z,11.39
2017-02-22T02:41:48.068Z,11.38
2017-02-22T02:42:48.045Z,11.35
2017-02-22T02:43:48.033Z,11.34
2017-02-22T02:44:47.630Z,11.43
2017-02-22T02:45:48.000Z,11.39
2017-02-22T02:46:47.985Z,11.46
2017-02-22T02:47:47.987Z,11.44
2017-02-22T02:48:47.952Z,11.44
2017-02-22T02:49:47.962Z,11.41
2017-02-22T02:50:47.954Z,11.5
2017-02-22T02:51:47.514Z,11.47
2017-02-22T02:52:47.889Z,11.47
2017-02-22T02:53:47.928Z,11.54
2017-02-22T02:54:47.863Z,11.47
2017-02-22T02:55:47.858Z,11.46
2017-02-22T02:56:47.832Z,11.54
2017-02-22T02:57:47.819Z,11.47
2017-02-22T02:58:47.817Z,11.43
2017-02-22T02:59:47.789Z,11.52
2017-02-22T03:00:47.381Z,11.52
2017-02-22T03:01:47.766Z,11.46
2017-02-22T03:02:47.778Z,11.44
2017-02-22T03:03:47.727Z,11.49
2017-02-22T03:04:47.712Z,11.53
2017-02-22T03:05:47.712Z,11.56
2017-02-22T03:06:47.685Z,11.49
2017-02-22T03:07:47.682Z,11.46
2017-02-22T03:08:47.648Z,11.43
2017-02-22T03:09:47.255Z,11.46
2017-02-22T03:10:47.621Z,11.54
2017-02-22T03:11:47.601Z,11.56
2017-02-22T03:12:47.590Z,11.49
2017-02-22T03:13:47.571Z,11.49
2017-02-22T03:14:47.563Z,11.5
2017-02-22T03:15:47.544Z,11.49
2017-02-22T03:16:47.536Z,11.56
2017-02-22T03:17:47.511Z,11.52
2017-02-22T03:18:47.494Z,11.57
2017-02-22T03:19:47.486Z,11.54
2017-02-22T03:20:47.467Z,11.53
2017-02-22T03:21:47.462Z,11.47
2017-02-22T03:22:47.437Z,11.52
2017-02-22T03:23:47.425Z,11.5
2017-02-22T03:24:47.024Z,11.54
2017-02-22T03:25:47.393Z,11.54
2017-02-22T03:26:47.376Z,11.47
2017-02-22T03:27:47.364Z,11.47
2017-02-22T03:28:46.945Z,11.44
2017-02-22T03:29:46.936Z,11.47
2017-02-22T03:30:46.940Z,11.54
2017-02-22T03:31:47.318Z,11.56
2017-02-22T03:32:46.497Z,11.54
2017-02-22T03:33:46.874Z,11.56
2017-02-22T03:34:47.258Z,11.59
2017-02-22T03:35:47.251Z,11.53
2017-02-22T03:36:47.215Z,11.53
2017-02-22T03:37:47.246Z,11.56
2017-02-22T03:38:47.186Z,11.59
2017-02-22T03:39:47.179Z,11.54
2017-02-22T03:40:47.160Z,11.56
2017-02-22T03:41:47.143Z,11.53
2017-02-22T03:42:47.135Z,11.59
2017-02-22T03:43:47.116Z,11.59
2017-02-22T03:44:47.106Z,11.53
2017-02-22T03:45:47.087Z,11.62
2017-02-22T03:46:47.071Z,11.65
2017-02-22T03:47:47.067Z,11.64
2017-02-22T03:48:47.034Z,11.64
2017-02-22T03:49:47.038Z,11.64
2017-02-22T03:50:47.014Z,11.7
2017-02-22T03:51:47.019Z,11.65
2017-02-22T03:52:46.975Z,11.71
2017-02-22T03:53:46.970Z,11.68
2017-02-22T03:54:46.941Z,11.7
2017-02-22T03:55:46.932Z,11.61
2017-02-22T03:56:46.921Z,11.62
2017-02-22T03:57:46.909Z,11.64
2017-02-22T03:58:46.885Z,11.64
2017-02-22T03:59:46.880Z,11.59
2017-02-22T04:00:46.860Z,11.62
2017-02-22T04:01:46.836Z,11.61
2017-02-22T04:02:46.818Z,11.59
2017-02-22T04:03:46.824Z,11.62
2017-02-22T04:04:46.796Z,11.64
2017-02-22T04:05:46.789Z,11.65
2017-02-22T04:06:46.760Z,11.64
2017-02-22T04:07:46.767Z,11.7
2017-02-22T04:08:46.742Z,11.71
2017-02-22T04:09:46.717Z,11.67
2017-02-22T04:10:46.700Z,11.68
2017-02-22T04:11:46.692Z,11.68
2017-02-22T04:12:46.682Z,11.71
2017-02-22T04:13:46.664Z,11.67
2017-02-22T04:14:46.290Z,11.64
2017-02-22T04:15:46.629Z,11.62
2017-02-22T04:16:46.605Z,11.65
2017-02-22T04:17:46.591Z,11.67
2017-02-22T04:18:46.591Z,11.62
2017-02-22T04:19:46.563Z,11.62
2017-02-22T04:20:46.569Z,11.59
2017-02-22T04:21:46.143Z,11.59
2017-02-22T04:22:46.544Z,11.57
2017-02-22T04:23:46.518Z,11.62
2017-02-22T04:24:46.498Z,11.56
2017-02-22T04:25:46.500Z,11.57
2017-02-22T04:26:46.085Z,11.54
2017-02-22T04:27:46.446Z,11.64
2017-02-22T04:28:46.428Z,11.64
2017-02-22T04:29:46.414Z,11.62
2017-02-22T04:30:46.405Z,11.56
2017-02-22T04:31:46.380Z,11.57
2017-02-22T04:32:46.380Z,11.62
2017-02-22T04:33:46.351Z,11.62
2017-02-22T04:34:46.355Z,11.65
2017-02-22T04:35:46.321Z,11.64
2017-02-22T04:36:46.344Z,11.64
2017-02-22T04:37:46.292Z,11.56
2017-02-22T04:38:46.478Z,11.57
2017-02-22T04:39:46.258Z,11.5
2017-02-22T04:40:46.268Z,11.53
2017-02-22T04:41:46.239Z,11.54
2017-02-22T04:42:46.221Z,11.56
2017-02-22T04:43:46.199Z,11.57
2017-02-22T04:44:46.185Z,11.54
2017-02-22T04:45:46.168Z,11.53
2017-02-22T04:46:46.159Z,11.61
2017-02-22T04:47:46.145Z,11.56
2017-02-22T04:48:46.122Z,11.57
2017-02-22T04:49:46.116Z,11.49
2017-02-22T04:50:46.093Z,11.47
2017-02-22T04:51:46.084Z,11.5
2017-02-22T04:52:46.077Z,11.54
2017-02-22T04:53:46.046Z,11.52
2017-02-22T04:54:45.651Z,11.52
2017-02-22T04:55:46.023Z,11.56
2017-02-22T04:56:46.019Z,11.46
2017-02-22T04:57:45.632Z,11.5
2017-02-22T04:58:45.996Z,11.46
2017-02-22T04:59:45.564Z,11.49
2017-02-22T05:00:45.958Z,11.46
2017-02-22T05:01:45.937Z,11.47
2017-02-22T05:02:45.917Z,11.49
2017-02-22T05:03:45.508Z,11.52
2017-02-22T05:04:45.488Z,11.56
2017-02-22T05:05:45.873Z,11.52
2017-02-22T05:06:45.454Z,11.49
2017-02-22T05:07:45.860Z,11.53
2017-02-22T05:08:45.828Z,11.52
2017-02-22T05:09:45.806Z,11.47
2017-02-22T05:10:45.785Z,11.56
2017-02-22T05:11:45.381Z,11.47
2017-02-22T05:12:45.365Z,11.46
2017-02-22T05:13:45.349Z,11.38
2017-02-22T05:14:45.328Z,11.41
2017-02-22T05:15:45.357Z,11.43
2017-02-22T05:16:45.315Z,11.5
2017-02-22T05:17:45.687Z,11.52
2017-02-22T05:18:45.672Z,11.41
2017-02-22T05:19:45.655Z,11.5
2017-02-22T05:20:45.642Z,11.47
2017-02-22T05:21:45.623Z,11.41
2017-02-22T05:22:45.607Z,11.36
2017-02-22T05:23:45.597Z,11.38
2017-02-22T05:24:45.580Z,11.32
2017-02-22T05:25:45.601Z,11.34
2017-02-22T05:26:45.555Z,11.24
2017-02-22T05:27:45.543Z,11.25
2017-02-22T05:28:45.529Z,11.21
2017-02-22T05:29:45.503Z,11.16
2017-02-22T05:30:45.497Z,11.2
2017-02-22T05:31:45.096Z,11.2
2017-02-22T05:32:45.454Z,11.21
2017-02-22T05:33:45.437Z,11.21
2017-02-22T05:34:45.422Z,11.25
2017-02-22T05:35:45.408Z,11.25
2017-02-22T05:36:44.994Z,11.28
2017-02-22T05:37:45.376Z,11.21
2017-02-22T05:38:45.357Z,11.31
2017-02-22T05:39:45.343Z,11.27
2017-02-22T05:40:45.332Z,11.24
2017-02-22T05:41:45.344Z,11.36
2017-02-22T05:42:45.302Z,11.29
2017-02-22T05:43:45.277Z,11.21
2017-02-22T05:44:45.331Z,11.13
2017-02-22T05:45:45.270Z,11.03
2017-02-22T05:46:45.248Z,11.06
2017-02-22T05:47:44.842Z,10.99
2017-02-22T05:48:45.218Z,11.01
2017-02-22T05:49:45.190Z,10.86
2017-02-22T05:50:45.169Z,10.86
2017-02-22T05:51:45.170Z,10.83
2017-02-22T05:52:45.141Z,10.77
2017-02-22T05:53:45.131Z,10.78
2017-02-22T05:54:45.112Z,10.68
2017-02-22T05:55:45.092Z,10.76
2017-02-22T05:56:45.089Z,10.71
2017-02-22T05:57:44.671Z,10.6
2017-02-22T05:58:45.059Z,10.56
2017-02-22T05:59:45.038Z,10.51
2017-02-22T06:00:45.028Z,10.51
2017-02-22T06:01:44.599Z,10.4
2017-02-22T06:02:44.990Z,10.34
2017-02-22T06:03:44.181Z,10.4
2017-02-22T06:04:44.964Z,10.33
2017-02-22T06:05:44.938Z,10.33
2017-02-22T06:06:44.930Z,10.18
2017-02-22T06:07:44.913Z,10.32
2017-02-22T06:08:44.895Z,10.24
2017-02-22T06:09:44.878Z,10.25
2017-02-22T06:10:44.855Z,10.17
2017-02-22T06:11:44.835Z,10.19
2017-02-22T06:12:44.825Z,10.21
2017-02-22T06:13:44.813Z,10.15
2017-02-22T06:14:44.796Z,10.15
2017-02-22T06:15:44.772Z,10.18
2017-02-22T06:16:44.766Z,10.22
2017-02-22T06:17:44.746Z,10.18
2017-02-22T06:18:44.744Z,10.19
2017-02-22T06:19:44.713Z,10.15
2017-02-22T06:20:44.701Z,10.21
2017-02-22T06:21:44.681Z,10.18
2017-02-22T06:22:44.669Z,10.15
2017-02-22T06:23:44.663Z,10.14
2017-02-22T06:24:44.623Z,10.15
2017-02-22T06:25:44.209Z,10.12
2017-02-22T06:26:44.597Z,10
2017-02-22T06:27:44.589Z,10.06
2017-02-22T06:28:44.565Z,10.01
2017-02-22T06:29:44.146Z,10.12
2017-02-22T06:30:44.532Z,10.09
2017-02-22T06:31:44.522Z,10.04
2017-02-22T06:32:44.510Z,10.07
2017-02-22T06:33:44.479Z,10.09
2017-02-22T06:34:44.491Z,10.04
2017-02-22T06:35:44.451Z,10
2017-02-22T06:36:44.428Z,10.03
2017-02-22T06:37:44.430Z,10.06
2017-02-22T06:38:59.147Z,10.04
2017-02-22T06:39:43.988Z,10.06
2017-02-22T06:40:44.377Z,10.04
2017-02-22T06:41:44.355Z,10.04
2017-02-22T06:42:44.329Z,9.97
2017-02-22T06:43:43.919Z,10.01
2017-02-22T06:44:44.300Z,10.03
2017-02-22T06:45:44.295Z,9.99
2017-02-22T06:46:43.874Z,10
2017-02-22T06:47:44.253Z,10.06
2017-02-22T06:48:44.226Z,10.09
2017-02-22T06:49:44.208Z,10.1
2017-02-22T06:50:44.207Z,10.03
2017-02-22T06:51:44.188Z,10.12
2017-02-22T06:52:44.175Z,10.01
2017-02-22T06:53:44.147Z,9.99
2017-02-22T06:54:44.128Z,10.01
2017-02-22T06:55:43.731Z,10.03
2017-02-22T06:56:44.094Z,10.03
2017-02-22T06:57:44.086Z,10.03
2017-02-22T06:58:44.066Z,10.01
2017-02-22T06:59:44.044Z,9.99
2017-02-22T07:00:44.054Z,10.01
2017-02-22T07:01:44.030Z,10.06
2017-02-22T07:02:43.995Z,9.97
2017-02-22T07:03:43.985Z,9.99
2017-02-22T07:04:43.967Z,10.01
2017-02-22T07:05:43.592Z,10
2017-02-22T07:06:43.935Z,9.99
2017-02-22T07:07:43.927Z,10.01
2017-02-22T07:08:43.897Z,10.01
2017-02-22T07:09:43.917Z,10.03
2017-02-22T07:10:43.923Z,10.01
2017-02-22T07:11:43.901Z,10.03
2017-02-22T07:12:43.831Z,10.03
2017-02-22T07:13:43.439Z,10
2017-02-22T07:14:43.809Z,10
2017-02-22T07:15:43.804Z,9.99
2017-02-22T07:16:43.377Z,10.12
2017-02-22T07:17:43.360Z,10.03
2017-02-22T07:18:43.743Z,10.06
2017-02-22T07:19:43.333Z,10.06
2017-02-22T07:20:43.729Z,10.01
2017-02-22T07:21:43.684Z,10
2017-02-22T07:22:43.667Z,10
2017-02-22T07:23:42.891Z,10.04
2017-02-22T07:24:43.645Z,10.12
2017-02-22T07:25:43.636Z,10.04
2017-02-22T07:26:43.620Z,10.03
2017-02-22T07:27:43.610Z,10.04
2017-02-22T07:28:43.586Z,10.04
2017-02-22T07:29:43.577Z,10.04
2017-02-22T07:30:43.536Z,10.01
2017-02-22T07:31:43.531Z,10.07
2017-02-22T07:32:43.504Z,10.04
2017-02-22T07:33:43.493Z,10.07
2017-02-22T07:34:43.474Z,10.06
2017-02-22T07:35:43.474Z,10.06
2017-02-22T07:36:43.440Z,10.06
2017-02-22T07:37:43.433Z,10.09
2017-02-22T07:38:43.033Z,10.03
2017-02-22T07:39:43.402Z,10
2017-02-22T07:40:43.385Z,10.07
2017-02-22T07:41:43.353Z,10.06
2017-02-22T07:42:43.338Z,10.06
2017-02-22T07:43:42.928Z,10.09
2017-02-22T07:44:43.324Z,10.06
2017-02-22T07:45:43.306Z,10.1
2017-02-22T07:46:43.281Z,10.04
2017-02-22T07:47:43.259Z,10.09
2017-02-22T07:48:43.236Z,10.04
2017-02-22T07:49:43.251Z,10
2017-02-22T07:50:43.204Z,10.14
2017-02-22T07:51:43.189Z,10.19
2017-02-22T07:52:43.183Z,10.18
2017-02-22T07:53:43.167Z,10.17
2017-02-22T07:54:43.161Z,10.15
2017-02-22T07:55:43.118Z,10.07
2017-02-22T07:56:43.112Z,10.14
2017-02-22T07:57:42.693Z,10.21
2017-02-22T07:58:43.068Z,10.19
2017-02-22T07:59:42.696Z,10.21
2017-02-22T08:00:43.042Z,10.18
2017-02-22T08:01:43.044Z,10.25
2017-02-22T08:02:43.008Z,10.18
2017-02-22T08:03:42.993Z,10.22
2017-02-22T08:04:42.969Z,10.19
2017-02-22T08:05:43.020Z,10.17
2017-02-22T08:06:42.941Z,10.21
2017-02-22T08:07:42.531Z,10.19
2017-02-22T08:08:42.139Z,10.19
2017-02-22T08:09:42.909Z,10.22
2017-02-22T08:10:42.875Z,10.24
2017-02-22T08:11:42.867Z,10.21
2017-02-22T08:12:42.458Z,10.28
2017-02-22T08:13:42.827Z,10.21
2017-02-22T08:14:42.809Z,10.28
2017-02-22T08:15:42.801Z,10.28
2017-02-22T08:16:42.777Z,10.22
2017-02-22T08:17:42.786Z,10.24
2017-02-22T08:18:42.761Z,10.26
2017-02-22T08:19:42.731Z,10.28
2017-02-22T08:20:42.776Z,10.24
2017-02-22T08:21:42.708Z,10.21
2017-02-22T08:22:42.681Z,10.21
2017-02-22T08:23:42.672Z,10.26
2017-02-22T08:24:42.666Z,10.24
2017-02-22T08:25:42.640Z,10.26
2017-02-22T08:26:42.612Z,10.3
2017-02-22T08:27:42.601Z,10.26
2017-02-22T08:28:42.584Z,10.33
2017-02-22T08:29:42.574Z,10.24
2017-02-22T08:30:42.555Z,10.26
2017-02-22T08:31:42.537Z,10.32
2017-02-22T08:32:41.726Z,10.24
2017-02-22T08:33:42.506Z,10.26
2017-02-22T08:34:42.099Z,10.32
2017-02-22T08:35:42.081Z,10.26
2017-02-22T08:36:42.453Z,10.32
2017-02-22T08:37:42.449Z,10.33
2017-02-22T08:38:42.431Z,10.3
2017-02-22T08:39:42.406Z,10.33
2017-02-22T08:40:42.447Z,10.3
2017-02-22T08:41:42.374Z,10.32
2017-02-22T08:42:42.354Z,10.33
2017-02-22T08:43:42.335Z,10.33
2017-02-22T08:44:42.327Z,10.26
2017-02-22T08:45:42.356Z,10.3
2017-02-22T08:46:41.894Z,10.3
2017-02-22T08:47:41.900Z,10.26
2017-02-22T08:48:42.257Z,10.32
2017-02-22T08:49:41.845Z,10.3
2017-02-22T08:50:42.224Z,10.36
2017-02-22T08:51:42.225Z,10.32
2017-02-22T08:52:41.818Z,10.26
2017-02-22T08:53:42.181Z,10.3
2017-02-22T08:54:42.179Z,10.34
2017-02-22T08:55:42.141Z,10.34
2017-02-22T08:56:42.125Z,10.36
2017-02-22T08:57:42.109Z,10.4
2017-02-22T08:58:42.102Z,10.34
2017-02-22T08:59:42.085Z,10.28
2017-02-22T09:00:42.068Z,10.26
2017-02-22T09:01:42.060Z,10.28
2017-02-22T09:02:41.639Z,10.37
2017-02-22T09:03:42.038Z,10.3
2017-02-22T09:04:42.046Z,10.3
2017-02-22T09:05:41.994Z,10.36
2017-02-22T09:06:41.972Z,10.32
2017-02-22T09:07:41.949Z,10.36
2017-02-22T09:08:41.936Z,10.4
2017-02-22T09:09:41.925Z,10.44
2017-02-22T09:10:41.898Z,10.36
2017-02-22T09:11:41.896Z,10.42
2017-02-22T09:12:41.090Z,10.43
2017-02-22T09:13:41.859Z,10.39
2017-02-22T09:14:41.840Z,10.46
2017-02-22T09:15:41.837Z,10.4
2017-02-22T09:16:41.844Z,10.43
2017-02-22T09:17:41.410Z,10.51
2017-02-22T09:18:41.792Z,10.46
2017-02-22T09:19:41.760Z,10.46
2017-02-22T09:20:41.741Z,10.43
2017-02-22T09:21:41.721Z,10.51
2017-02-22T09:22:41.710Z,10.56
2017-02-22T09:23:41.692Z,10.53
2017-02-22T09:24:41.679Z,10.56
2017-02-22T09:25:41.690Z,10.51
2017-02-22T09:26:41.653Z,10.56
2017-02-22T09:27:41.641Z,10.58
2017-02-22T09:28:41.221Z,10.58
2017-02-22T09:29:41.596Z,10.63
2017-02-22T09:30:41.585Z,10.68
2017-02-22T09:31:41.565Z,10.76
2017-02-22T09:32:41.550Z,10.76
2017-02-22T09:33:41.549Z,10.73
2017-02-22T09:34:41.521Z,10.76
2017-02-22T09:35:41.517Z,10.65
2017-02-22T09:36:41.492Z,10.73
2017-02-22T09:37:41.473Z,10.73
2017-02-22T09:38:41.464Z,10.7
2017-02-22T09:39:41.444Z,10.66
2017-02-22T09:40:41.423Z,10.65
2017-02-22T09:41:41.407Z,10.66
2017-02-22T09:42:41.394Z,10.66
2017-02-22T09:43:41.381Z,10.7
2017-02-22T09:44:41.370Z,10.63
2017-02-22T09:45:41.359Z,10.63
2017-02-22T09:46:41.330Z,10.68
2017-02-22T09:47:41.314Z,10.73
2017-02-22T09:48:41.293Z,10.63
2017-02-22T09:49:41.297Z,10.71
2017-02-22T09:50:41.262Z,10.65
2017-02-22T09:51:41.251Z,10.76
2017-02-22T09:52:41.243Z,10.74
2017-02-22T09:53:41.228Z,10.68
2017-02-22T09:54:41.195Z,10.76
2017-02-22T09:55:41.192Z,10.76
2017-02-22T09:56:41.189Z,10.71
2017-02-22T09:57:40.763Z,10.66
2017-02-22T09:58:41.139Z,10.74
2017-02-22T09:59:41.139Z,10.76
2017-02-22T10:00:41.108Z,10.68
2017-02-22T10:01:41.090Z,10.73
2017-02-22T10:02:41.084Z,10.71
2017-02-22T10:03:41.272Z,10.73
2017-02-22T10:04:41.050Z,10.71
2017-02-22T10:05:41.034Z,10.76
2017-02-22T10:06:41.037Z,10.76
2017-02-22T10:07:41.012Z,10.63
2017-02-22T10:08:41.003Z,10.65
2017-02-22T10:09:40.998Z,10.7
2017-02-22T10:10:40.954Z,10.63
2017-02-22T10:11:40.936Z,10.63
2017-02-22T10:12:40.940Z,10.7
2017-02-22T10:13:40.548Z,10.65
2017-02-22T10:14:40.916Z,10.65
2017-02-22T10:15:40.892Z,10.65
2017-02-22T10:16:40.889Z,10.77
2017-02-22T10:17:40.877Z,10.63
2017-02-22T10:18:40.451Z,10.71
2017-02-22T10:19:40.424Z,10.74
2017-02-22T10:20:40.626Z,10.77
2017-02-22T10:21:40.819Z,10.68
2017-02-22T10:22:40.764Z,10.66
2017-02-22T10:23:40.769Z,10.73
2017-02-22T10:24:40.746Z,10.73
2017-02-22T10:25:40.338Z,10.68
2017-02-22T10:26:40.764Z,10.65
2017-02-22T10:27:40.729Z,10.68
2017-02-22T10:28:40.297Z,10.68
2017-02-22T10:29:40.660Z,10.78
2017-02-22T10:30:40.659Z,10.73
2017-02-22T10:31:40.628Z,10.73
2017-02-22T10:32:40.630Z,10.66
2017-02-22T10:33:40.595Z,10.66
2017-02-22T10:34:40.670Z,10.68
2017-02-22T10:35:40.575Z,10.73
2017-02-22T10:36:40.157Z,10.74
2017-02-22T10:37:40.542Z,10.65
2017-02-22T10:38:40.539Z,10.76
2017-02-22T10:39:40.714Z,10.65
2017-02-22T10:40:40.528Z,10.7
2017-02-22T10:41:40.493Z,10.76
2017-02-22T10:42:40.054Z,10.73
2017-02-22T10:43:40.455Z,10.74
2017-02-22T10:44:40.427Z,10.7
2017-02-22T10:45:40.398Z,10.65
2017-02-22T10:46:40.383Z,10.73
2017-02-22T10:47:40.382Z,10.71
2017-02-22T10:48:40.365Z,10.74
2017-02-22T10:49:40.353Z,10.78
2017-02-22T10:50:40.328Z,10.78
2017-02-22T10:51:40.308Z,10.68
2017-02-22T10:52:40.303Z,10.8
2017-02-22T10:53:40.273Z,10.71
2017-02-22T10:54:39.862Z,10.81
2017-02-22T10:55:40.273Z,10.8
2017-02-22T10:56:40.230Z,10.83
2017-02-22T10:57:40.209Z,10.8
2017-02-22T10:58:40.195Z,10.78
2017-02-22T10:59:40.217Z,10.83
2017-02-22T11:00:40.209Z,10.78
2017-02-22T11:01:40.266Z,10.74
2017-02-22T11:02:40.137Z,10.74
2017-02-22T11:03:40.128Z,10.78
2017-02-22T11:04:40.122Z,10.8
2017-02-22T11:05:40.084Z,10.81
2017-02-22T11:06:40.073Z,10.81
2017-02-22T11:07:40.064Z,10.78
2017-02-22T11:08:40.045Z,10.83
2017-02-22T11:09:40.045Z,10.74
2017-02-22T11:10:40.017Z,10.84
2017-02-22T11:11:40.017Z,10.81
2017-02-22T11:12:39.989Z,10.78
2017-02-22T11:13:39.970Z,10.83
2017-02-22T11:14:39.959Z,10.83
2017-02-22T11:15:39.929Z,10.8
2017-02-22T11:16:39.930Z,10.76
2017-02-22T11:17:39.930Z,10.83
2017-02-22T11:18:39.881Z,10.81
2017-02-22T11:19:39.874Z,10.78
2017-02-22T11:20:39.852Z,10.8
2017-02-22T11:21:39.836Z,10.81
2017-02-22T11:22:39.833Z,10.88
2017-02-22T11:23:39.811Z,10.86
2017-02-22T11:24:39.782Z,10.83
2017-02-22T11:25:39.771Z,10.83
2017-02-22T11:26:39.769Z,10.78
2017-02-22T11:27:39.740Z,10.78
2017-02-22T11:28:39.327Z,10.78
2017-02-22T11:29:38.938Z,10.78
2017-02-22T11:30:39.720Z,10.83
2017-02-22T11:31:39.693Z,10.86
2017-02-22T11:32:39.673Z,10.78
2017-02-22T11:33:39.649Z,10.8
2017-02-22T11:34:39.664Z,10.78
2017-02-22T11:35:39.625Z,10.83
2017-02-22T11:36:39.624Z,10.88
2017-02-22T11:37:39.594Z,10.98
2017-02-22T11:38:39.565Z,10.86
2017-02-22T11:39:39.548Z,10.91
2017-02-22T11:40:39.551Z,10.88
2017-02-22T11:41:39.521Z,10.83
2017-02-22T11:42:39.116Z,10.88
2017-02-22T11:43:39.501Z,10.84
2017-02-22T11:44:39.484Z,10.84
2017-02-22T11:45:39.475Z,10.86
2017-02-22T11:46:39.456Z,10.78
2017-02-22T11:47:39.431Z,10.89
2017-02-22T11:48:39.415Z,10.95
2017-02-22T11:49:39.401Z,10.89
2017-02-22T11:50:39.391Z,10.84
2017-02-22T11:51:39.366Z,10.77
2017-02-22T11:52:39.366Z,10.96
2017-02-22T11:53:39.334Z,10.86
2017-02-22T11:54:39.321Z,10.98
2017-02-22T11:55:39.304Z,10.88
2017-02-22T11:56:38.892Z,10.86
2017-02-22T11:57:38.879Z,10.94
2017-02-22T11:58:39.288Z,10.84
2017-02-22T11:59:39.247Z,10.91
2017-02-22T12:00:39.233Z,10.98
2017-02-22T12:01:39.220Z,10.78
2017-02-22T12:02:39.193Z,10.8
2017-02-22T12:03:38.786Z,10.83
2017-02-22T12:04:39.165Z,10.77
2017-02-22T12:05:39.159Z,10.81
2017-02-22T12:06:39.142Z,10.76
2017-02-22T12:07:39.404Z,10.78
2017-02-22T12:08:39.115Z,10.83
2017-02-22T12:09:39.104Z,10.78
2017-02-22T12:10:39.074Z,10.76
2017-02-22T12:11:39.065Z,10.83
2017-02-22T12:12:39.039Z,10.77
2017-02-22T12:13:39.036Z,10.83
2017-02-22T12:14:39.026Z,10.81
2017-02-22T12:15:38.990Z,10.81
2017-02-22T12:16:38.997Z,10.77
2017-02-22T12:17:38.960Z,10.83
2017-02-22T12:18:38.948Z,10.84
2017-02-22T12:19:38.930Z,10.78
2017-02-22T12:20:38.918Z,10.8
2017-02-22T12:21:38.895Z,10.81
2017-02-22T12:22:38.894Z,10.8
2017-02-22T12:23:38.485Z,10.71
2017-02-22T12:24:38.849Z,10.71
2017-02-22T12:25:38.855Z,10.74
2017-02-22T12:26:38.838Z,10.83
2017-02-22T12:27:38.806Z,10.8
2017-02-22T12:28:38.802Z,10.78
2017-02-22T12:29:38.010Z,10.78
2017-02-22T12:30:38.763Z,10.74
2017-02-22T12:31:38.759Z,10.81
2017-02-22T12:32:38.733Z,10.86
2017-02-22T12:33:38.316Z,10.8
2017-02-22T12:34:38.693Z,10.8
2017-02-22T12:35:38.316Z,10.88
2017-02-22T12:36:38.668Z,10.89
2017-02-22T12:37:38.664Z,10.83
2017-02-22T12:38:38.636Z,10.88
2017-02-22T12:39:38.821Z,10.78
2017-02-22T12:40:38.606Z,10.88
2017-02-22T12:41:38.582Z,10.92
2017-02-22T12:42:38.177Z,10.83
2017-02-22T12:43:38.156Z,10.95
2017-02-22T12:44:38.550Z,10.88
2017-02-22T12:45:38.532Z,10.88
2017-02-22T12:46:38.110Z,10.98
2017-02-22T12:47:38.105Z,10.8
2017-02-22T12:48:38.080Z,10.96
2017-02-22T12:49:38.114Z,10.91
2017-02-22T12:50:38.080Z,10.78
2017-02-22T12:51:38.048Z,10.91
2017-02-22T12:52:38.022Z,10.86
2017-02-22T12:53:38.397Z,10.8
2017-02-22T12:54:37.995Z,10.88
2017-02-22T12:55:38.401Z,10.88
2017-02-22T12:56:37.972Z,10.81